sensor_id;sensor_type;location;lat;lon;timestamp;P1;durP1;ratioP1;P2;durP2;ratioP2
49396;SDS011;35615;41.410;2.194;2023-04-03T00:01:06;6.07;;;0.85;;
49396;SDS011;35615;41.410;2.194;2023-04-03T00:03:34;1.35;;;1.00;;
49396;SDS011;35615;41.410;2.194;2023-04-03T00:06:05;3.58;;;1.10;;
49396;SDS011;35615;41.410;2.194;2023-04-03T00:08:36;6.75;;;1.48;;
49396;SDS011;35615;41.410;2.194;2023-04-03T00:11:04;5.45;;;1.40;;
49396;SDS011;35615;41.410;2.194;2023-04-03T00:13:35;5.32;;;1.48;;
49396;SDS011;35615;41.410;2.194;2023-04-03T00:16:06;8.43;;;1.00;;
49396;SDS011;35615;41.410;2.194;2023-04-03T00:18:35;5.05;;;1.10;;
49396;SDS011;35615;41.410;2.194;2023-04-03T00:21:03;7.93;;;1.65;;
49396;SDS011;35615;41.410;2.194;2023-04-03T00:23:31;2.38;;;0.95;;
49396;SDS011;35615;41.410;2.194;2023-04-03T00:25:59;4.35;;;1.33;;
49396;SDS011;35615;41.410;2.194;2023-04-03T00:28:26;2.10;;;0.95;;
49396;SDS011;35615;41.410;2.194;2023-04-03T00:30:55;3.22;;;1.00;;
49396;SDS011;35615;41.410;2.194;2023-04-03T00:33:22;2.10;;;1.08;;
49396;SDS011;35615;41.410;2.194;2023-04-03T00:35:51;6.03;;;1.00;;
49396;SDS011;35615;41.410;2.194;2023-04-03T00:38:18;2.30;;;1.05;;
49396;SDS011;35615;41.410;2.194;2023-04-03T00:40:47;2.13;;;0.73;;
49396;SDS011;35615;41.410;2.194;2023-04-03T00:43:20;5.68;;;0.70;;
49396;SDS011;35615;41.410;2.194;2023-04-03T00:45:50;1.35;;;0.70;;
49396;SDS011;35615;41.410;2.194;2023-04-03T00:48:20;8.98;;;1.00;;
49396;SDS011;35615;41.410;2.194;2023-04-03T00:53:21;4.13;;;0.65;;
49396;SDS011;35615;41.410;2.194;2023-04-03T00:55:52;3.92;;;0.80;;
49396;SDS011;35615;41.410;2.194;2023-04-03T00:58:25;4.65;;;1.13;;
49396;SDS011;35615;41.410;2.194;2023-04-03T01:01:02;2.17;;;0.60;;
49396;SDS011;35615;41.410;2.194;2023-04-03T01:03:39;2.97;;;0.60;;
49396;SDS011;35615;41.410;2.194;2023-04-03T01:06:24;2.33;;;0.70;;
49396;SDS011;35615;41.410;2.194;2023-04-03T01:09:10;4.38;;;0.85;;
49396;SDS011;35615;41.410;2.194;2023-04-03T01:12:36;1.05;;;0.50;;
49396;SDS011;35615;41.410;2.194;2023-04-03T01:15:22;3.13;;;1.23;;
49396;SDS011;35615;41.410;2.194;2023-04-03T01:25:29;4.55;;;1.20;;
49396;SDS011;35615;41.410;2.194;2023-04-03T01:27:58;3.65;;;0.95;;
49396;SDS011;35615;41.410;2.194;2023-04-03T01:30:34;5.75;;;1.00;;
49396;SDS011;35615;41.410;2.194;2023-04-03T01:33:16;4.30;;;0.70;;
49396;SDS011;35615;41.410;2.194;2023-04-03T01:35:46;4.22;;;0.68;;
49396;SDS011;35615;41.410;2.194;2023-04-03T01:38:14;4.68;;;0.88;;
49396;SDS011;35615;41.410;2.194;2023-04-03T01:40:41;3.50;;;1.08;;
49396;SDS011;35615;41.410;2.194;2023-04-03T01:43:11;5.97;;;1.15;;
49396;SDS011;35615;41.410;2.194;2023-04-03T01:45:39;10.70;;;1.60;;
49396;SDS011;35615;41.410;2.194;2023-04-03T01:48:06;7.55;;;1.35;;
49396;SDS011;35615;41.410;2.194;2023-04-03T01:50:33;6.18;;;1.33;;
49396;SDS011;35615;41.410;2.194;2023-04-03T01:53:01;6.55;;;1.35;;
49396;SDS011;35615;41.410;2.194;2023-04-03T01:55:31;6.15;;;0.88;;
49396;SDS011;35615;41.410;2.194;2023-04-03T01:57:59;2.88;;;0.60;;
49396;SDS011;35615;41.410;2.194;2023-04-03T02:00:29;8.02;;;0.90;;
49396;SDS011;35615;41.410;2.194;2023-04-03T02:02:57;5.15;;;1.13;;
49396;SDS011;35615;41.410;2.194;2023-04-03T02:05:25;1.80;;;0.70;;
49396;SDS011;35615;41.410;2.194;2023-04-03T02:07:55;2.33;;;0.60;;
49396;SDS011;35615;41.410;2.194;2023-04-03T02:10:25;1.88;;;0.70;;
49396;SDS011;35615;41.410;2.194;2023-04-03T02:12:55;2.40;;;0.60;;
49396;SDS011;35615;41.410;2.194;2023-04-03T02:15:24;3.05;;;0.40;;
49396;SDS011;35615;41.410;2.194;2023-04-03T02:17:52;1.15;;;0.40;;
49396;SDS011;35615;41.410;2.194;2023-04-03T02:20:23;1.20;;;0.50;;
49396;SDS011;35615;41.410;2.194;2023-04-03T02:22:51;1.25;;;0.55;;
49396;SDS011;35615;41.410;2.194;2023-04-03T02:25:19;2.50;;;0.70;;
49396;SDS011;35615;41.410;2.194;2023-04-03T02:27:47;5.00;;;0.50;;
49396;SDS011;35615;41.410;2.194;2023-04-03T02:30:14;5.13;;;0.52;;
49396;SDS011;35615;41.410;2.194;2023-04-03T02:32:42;2.55;;;0.50;;
49396;SDS011;35615;41.410;2.194;2023-04-03T02:35:10;3.90;;;0.55;;
49396;SDS011;35615;41.410;2.194;2023-04-03T02:37:39;2.25;;;0.93;;
49396;SDS011;35615;41.410;2.194;2023-04-03T02:40:08;4.88;;;0.60;;
49396;SDS011;35615;41.410;2.194;2023-04-03T02:42:38;4.60;;;1.10;;
49396;SDS011;35615;41.410;2.194;2023-04-03T02:45:08;3.70;;;0.55;;
49396;SDS011;35615;41.410;2.194;2023-04-03T02:47:36;1.75;;;0.70;;
49396;SDS011;35615;41.410;2.194;2023-04-03T02:50:03;1.58;;;0.70;;
49396;SDS011;35615;41.410;2.194;2023-04-03T02:52:34;0.75;;;0.57;;
49396;SDS011;35615;41.410;2.194;2023-04-03T02:55:04;1.55;;;0.80;;
49396;SDS011;35615;41.410;2.194;2023-04-03T02:57:32;1.42;;;0.70;;
49396;SDS011;35615;41.410;2.194;2023-04-03T03:00:05;3.60;;;0.70;;
49396;SDS011;35615;41.410;2.194;2023-04-03T03:02:33;7.07;;;0.90;;
49396;SDS011;35615;41.410;2.194;2023-04-03T03:05:00;1.30;;;0.70;;
49396;SDS011;35615;41.410;2.194;2023-04-03T03:07:28;1.35;;;0.63;;
49396;SDS011;35615;41.410;2.194;2023-04-03T03:09:55;3.97;;;0.60;;
49396;SDS011;35615;41.410;2.194;2023-04-03T03:12:22;3.38;;;0.80;;
49396;SDS011;35615;41.410;2.194;2023-04-03T03:14:51;1.38;;;0.73;;
49396;SDS011;35615;41.410;2.194;2023-04-03T03:17:18;5.07;;;1.10;;
49396;SDS011;35615;41.410;2.194;2023-04-03T03:19:45;3.55;;;1.27;;
49396;SDS011;35615;41.410;2.194;2023-04-03T03:22:16;5.35;;;0.60;;
49396;SDS011;35615;41.410;2.194;2023-04-03T03:24:48;1.45;;;0.55;;
49396;SDS011;35615;41.410;2.194;2023-04-03T03:27:23;1.85;;;0.68;;
49396;SDS011;35615;41.410;2.194;2023-04-03T03:29:53;4.25;;;0.70;;
49396;SDS011;35615;41.410;2.194;2023-04-03T03:32:24;1.08;;;0.40;;
49396;SDS011;35615;41.410;2.194;2023-04-03T03:34:52;3.47;;;0.90;;
49396;SDS011;35615;41.410;2.194;2023-04-03T03:37:22;1.88;;;0.55;;
49396;SDS011;35615;41.410;2.194;2023-04-03T03:39:55;1.75;;;0.45;;
49396;SDS011;35615;41.410;2.194;2023-04-03T03:42:29;3.55;;;0.52;;
49396;SDS011;35615;41.410;2.194;2023-04-03T03:45:10;0.75;;;0.60;;
49396;SDS011;35615;41.410;2.194;2023-04-03T03:47:55;2.35;;;0.70;;
49396;SDS011;35615;41.410;2.194;2023-04-03T03:50:35;1.27;;;0.50;;
49396;SDS011;35615;41.410;2.194;2023-04-03T03:53:11;1.55;;;0.43;;
49396;SDS011;35615;41.410;2.194;2023-04-03T03:55:51;2.00;;;0.40;;
49396;SDS011;35615;41.410;2.194;2023-04-03T03:58:47;2.63;;;0.45;;
49396;SDS011;35615;41.410;2.194;2023-04-03T04:01:19;0.88;;;0.43;;
49396;SDS011;35615;41.410;2.194;2023-04-03T04:03:58;0.93;;;0.28;;
49396;SDS011;35615;41.410;2.194;2023-04-03T04:06:34;4.50;;;0.70;;
49396;SDS011;35615;41.410;2.194;2023-04-03T04:09:10;2.58;;;0.68;;
49396;SDS011;35615;41.410;2.194;2023-04-03T04:11:47;1.25;;;0.47;;
49396;SDS011;35615;41.410;2.194;2023-04-03T04:14:19;1.08;;;0.30;;
49396;SDS011;35615;41.410;2.194;2023-04-03T04:19:41;2.38;;;0.57;;
49396;SDS011;35615;41.410;2.194;2023-04-03T04:22:13;2.95;;;0.55;;
49396;SDS011;35615;41.410;2.194;2023-04-03T04:24:54;4.05;;;0.50;;
49396;SDS011;35615;41.410;2.194;2023-04-03T04:30:23;5.75;;;1.20;;
49396;SDS011;35615;41.410;2.194;2023-04-03T04:33:03;1.42;;;0.63;;
49396;SDS011;35615;41.410;2.194;2023-04-03T04:35:48;0.93;;;0.35;;
49396;SDS011;35615;41.410;2.194;2023-04-03T04:38:26;1.48;;;0.50;;
49396;SDS011;35615;41.410;2.194;2023-04-03T04:41:05;1.55;;;0.43;;
49396;SDS011;35615;41.410;2.194;2023-04-03T04:44:17;0.80;;;0.50;;
49396;SDS011;35615;41.410;2.194;2023-04-03T04:46:56;3.75;;;0.82;;
49396;SDS011;35615;41.410;2.194;2023-04-03T04:49:38;3.53;;;0.57;;
49396;SDS011;35615;41.410;2.194;2023-04-03T04:52:17;2.30;;;0.70;;
49396;SDS011;35615;41.410;2.194;2023-04-03T04:54:50;2.83;;;0.82;;
49396;SDS011;35615;41.410;2.194;2023-04-03T04:57:26;2.55;;;0.68;;
49396;SDS011;35615;41.410;2.194;2023-04-03T04:59:58;1.60;;;0.80;;
49396;SDS011;35615;41.410;2.194;2023-04-03T05:02:36;2.15;;;0.80;;
49396;SDS011;35615;41.410;2.194;2023-04-03T05:05:19;3.75;;;0.60;;
49396;SDS011;35615;41.410;2.194;2023-04-03T05:07:55;2.95;;;0.77;;
49396;SDS011;35615;41.410;2.194;2023-04-03T05:10:31;2.13;;;0.90;;
49396;SDS011;35615;41.410;2.194;2023-04-03T05:13:12;3.60;;;1.30;;
49396;SDS011;35615;41.410;2.194;2023-04-03T05:15:49;6.72;;;0.90;;
49396;SDS011;35615;41.410;2.194;2023-04-03T05:18:17;7.43;;;1.23;;
49396;SDS011;35615;41.410;2.194;2023-04-03T05:20:45;2.85;;;1.02;;
49396;SDS011;35615;41.410;2.194;2023-04-03T05:23:18;6.60;;;1.05;;
49396;SDS011;35615;41.410;2.194;2023-04-03T05:25:52;4.03;;;0.85;;
49396;SDS011;35615;41.410;2.194;2023-04-03T05:28:28;3.25;;;1.05;;
49396;SDS011;35615;41.410;2.194;2023-04-03T05:31:01;3.97;;;0.90;;
49396;SDS011;35615;41.410;2.194;2023-04-03T05:33:43;2.17;;;0.77;;
49396;SDS011;35615;41.410;2.194;2023-04-03T05:36:16;4.45;;;0.98;;
49396;SDS011;35615;41.410;2.194;2023-04-03T05:38:54;2.83;;;0.77;;
49396;SDS011;35615;41.410;2.194;2023-04-03T05:41:24;3.28;;;1.05;;
49396;SDS011;35615;41.410;2.194;2023-04-03T05:44:06;3.65;;;1.08;;
49396;SDS011;35615;41.410;2.194;2023-04-03T05:46:36;0.82;;;0.52;;
49396;SDS011;35615;41.410;2.194;2023-04-03T05:49:14;5.20;;;0.82;;
49396;SDS011;35615;41.410;2.194;2023-04-03T05:51:58;2.88;;;0.77;;
49396;SDS011;35615;41.410;2.194;2023-04-03T05:54:30;4.18;;;0.82;;
49396;SDS011;35615;41.410;2.194;2023-04-03T05:57:13;5.80;;;0.90;;
49396;SDS011;35615;41.410;2.194;2023-04-03T05:59:47;4.75;;;0.85;;
49396;SDS011;35615;41.410;2.194;2023-04-03T06:02:29;4.97;;;0.88;;
49396;SDS011;35615;41.410;2.194;2023-04-03T06:04:59;4.82;;;0.95;;
49396;SDS011;35615;41.410;2.194;2023-04-03T06:07:30;6.18;;;1.00;;
49396;SDS011;35615;41.410;2.194;2023-04-03T06:10:03;9.82;;;0.93;;
49396;SDS011;35615;41.410;2.194;2023-04-03T06:12:42;4.15;;;1.30;;
49396;SDS011;35615;41.410;2.194;2023-04-03T06:15:12;2.55;;;0.63;;
49396;SDS011;35615;41.410;2.194;2023-04-03T06:17:44;3.10;;;0.63;;
49396;SDS011;35615;41.410;2.194;2023-04-03T06:20:14;4.07;;;0.80;;
49396;SDS011;35615;41.410;2.194;2023-04-03T06:22:42;3.83;;;0.90;;
49396;SDS011;35615;41.410;2.194;2023-04-03T06:25:10;2.05;;;0.77;;
49396;SDS011;35615;41.410;2.194;2023-04-03T06:27:41;5.65;;;1.20;;
49396;SDS011;35615;41.410;2.194;2023-04-03T06:30:09;2.72;;;0.88;;
49396;SDS011;35615;41.410;2.194;2023-04-03T06:32:37;3.78;;;1.15;;
49396;SDS011;35615;41.410;2.194;2023-04-03T06:35:07;3.72;;;0.75;;
49396;SDS011;35615;41.410;2.194;2023-04-03T06:37:35;2.10;;;0.63;;
49396;SDS011;35615;41.410;2.194;2023-04-03T06:40:03;3.33;;;0.80;;
49396;SDS011;35615;41.410;2.194;2023-04-03T06:42:32;5.45;;;0.88;;
49396;SDS011;35615;41.410;2.194;2023-04-03T06:45:09;4.53;;;0.60;;
49396;SDS011;35615;41.410;2.194;2023-04-03T06:47:43;5.95;;;0.95;;
49396;SDS011;35615;41.410;2.194;2023-04-03T06:50:12;2.95;;;1.10;;
49396;SDS011;35615;41.410;2.194;2023-04-03T06:52:41;9.55;;;0.90;;
49396;SDS011;35615;41.410;2.194;2023-04-03T06:55:12;4.22;;;0.70;;
49396;SDS011;35615;41.410;2.194;2023-04-03T06:57:39;10.80;;;1.08;;
49396;SDS011;35615;41.410;2.194;2023-04-03T07:00:07;9.32;;;0.93;;
49396;SDS011;35615;41.410;2.194;2023-04-03T07:02:55;9.25;;;0.95;;
49396;SDS011;35615;41.410;2.194;2023-04-03T07:05:26;4.05;;;1.00;;
49396;SDS011;35615;41.410;2.194;2023-04-03T07:07:55;0.88;;;0.40;;
49396;SDS011;35615;41.410;2.194;2023-04-03T07:10:29;5.65;;;0.90;;
49396;SDS011;35615;41.410;2.194;2023-04-03T07:12:58;4.07;;;0.98;;
49396;SDS011;35615;41.410;2.194;2023-04-03T07:15:28;5.00;;;0.63;;
49396;SDS011;35615;41.410;2.194;2023-04-03T07:18:00;2.25;;;0.52;;
49396;SDS011;35615;41.410;2.194;2023-04-03T07:20:30;10.27;;;1.13;;
49396;SDS011;35615;41.410;2.194;2023-04-03T07:23:00;9.43;;;0.88;;
49396;SDS011;35615;41.410;2.194;2023-04-03T07:25:30;5.22;;;1.88;;
49396;SDS011;35615;41.410;2.194;2023-04-03T07:28:03;10.18;;;1.02;;
49396;SDS011;35615;41.410;2.194;2023-04-03T07:30:32;9.30;;;1.80;;
49396;SDS011;35615;41.410;2.194;2023-04-03T07:33:02;5.18;;;0.93;;
49396;SDS011;35615;41.410;2.194;2023-04-03T07:35:29;2.25;;;1.10;;
49396;SDS011;35615;41.410;2.194;2023-04-03T07:38:00;2.35;;;0.90;;
49396;SDS011;35615;41.410;2.194;2023-04-03T07:40:28;4.38;;;0.77;;
49396;SDS011;35615;41.410;2.194;2023-04-03T07:43:02;6.57;;;0.90;;
49396;SDS011;35615;41.410;2.194;2023-04-03T07:45:37;9.23;;;1.10;;
49396;SDS011;35615;41.410;2.194;2023-04-03T07:48:10;3.40;;;1.25;;
49396;SDS011;35615;41.410;2.194;2023-04-03T07:50:42;2.17;;;0.95;;
49396;SDS011;35615;41.410;2.194;2023-04-03T07:53:15;2.30;;;0.70;;
49396;SDS011;35615;41.410;2.194;2023-04-03T07:55:42;5.53;;;1.50;;
49396;SDS011;35615;41.410;2.194;2023-04-03T07:58:14;8.02;;;1.13;;
49396;SDS011;35615;41.410;2.194;2023-04-03T08:00:44;6.07;;;1.35;;
49396;SDS011;35615;41.410;2.194;2023-04-03T08:03:18;9.55;;;1.10;;
49396;SDS011;35615;41.410;2.194;2023-04-03T08:05:47;1.67;;;0.85;;
49396;SDS011;35615;41.410;2.194;2023-04-03T08:08:19;7.75;;;1.30;;
49396;SDS011;35615;41.410;2.194;2023-04-03T08:10:53;6.30;;;2.17;;
49396;SDS011;35615;41.410;2.194;2023-04-03T08:13:25;10.23;;;1.80;;
49396;SDS011;35615;41.410;2.194;2023-04-03T08:15:53;3.55;;;1.45;;
49396;SDS011;35615;41.410;2.194;2023-04-03T08:18:23;5.65;;;2.22;;
49396;SDS011;35615;41.410;2.194;2023-04-03T08:20:58;14.82;;;1.90;;
49396;SDS011;35615;41.410;2.194;2023-04-03T08:23:37;31.42;;;3.00;;
49396;SDS011;35615;41.410;2.194;2023-04-03T08:26:09;8.77;;;1.63;;
49396;SDS011;35615;41.410;2.194;2023-04-03T08:28:44;3.75;;;0.88;;
49396;SDS011;35615;41.410;2.194;2023-04-03T08:31:12;5.28;;;1.20;;
49396;SDS011;35615;41.410;2.194;2023-04-03T08:33:51;16.88;;;2.08;;
49396;SDS011;35615;41.410;2.194;2023-04-03T08:36:23;12.15;;;2.13;;
49396;SDS011;35615;41.410;2.194;2023-04-03T08:38:54;24.17;;;1.50;;
49396;SDS011;35615;41.410;2.194;2023-04-03T08:46:54;8.40;;;1.40;;
49396;SDS011;35615;41.410;2.194;2023-04-03T08:49:30;4.18;;;1.30;;
49396;SDS011;35615;41.410;2.194;2023-04-03T08:55:06;6.47;;;1.80;;
49396;SDS011;35615;41.410;2.194;2023-04-03T08:58:03;18.80;;;1.55;;
49396;SDS011;35615;41.410;2.194;2023-04-03T09:00:50;6.10;;;0.85;;
49396;SDS011;35615;41.410;2.194;2023-04-03T09:03:28;4.88;;;0.85;;
49396;SDS011;35615;41.410;2.194;2023-04-03T09:06:05;1.52;;;0.50;;
49396;SDS011;35615;41.410;2.194;2023-04-03T09:12:09;3.45;;;1.70;;
49396;SDS011;35615;41.410;2.194;2023-04-03T09:17:59;4.50;;;1.05;;
49396;SDS011;35615;41.410;2.194;2023-04-03T09:20:53;4.35;;;1.00;;
49396;SDS011;35615;41.410;2.194;2023-04-03T09:23:34;4.32;;;0.80;;
49396;SDS011;35615;41.410;2.194;2023-04-03T09:29:17;6.78;;;1.13;;
49396;SDS011;35615;41.410;2.194;2023-04-03T09:31:52;3.83;;;0.60;;
49396;SDS011;35615;41.410;2.194;2023-04-03T09:34:30;6.88;;;0.60;;
49396;SDS011;35615;41.410;2.194;2023-04-03T09:37:01;2.60;;;0.75;;
49396;SDS011;35615;41.410;2.194;2023-04-03T09:39:48;2.92;;;0.65;;
49396;SDS011;35615;41.410;2.194;2023-04-03T09:42:26;1.67;;;0.68;;
49396;SDS011;35615;41.410;2.194;2023-04-03T09:45:01;3.88;;;0.95;;
49396;SDS011;35615;41.410;2.194;2023-04-03T09:47:41;3.08;;;0.80;;
49396;SDS011;35615;41.410;2.194;2023-04-03T09:50:19;7.35;;;0.82;;
49396;SDS011;35615;41.410;2.194;2023-04-03T09:52:55;4.70;;;0.90;;
49396;SDS011;35615;41.410;2.194;2023-04-03T09:55:28;4.40;;;1.27;;
49396;SDS011;35615;41.410;2.194;2023-04-03T09:58:03;2.78;;;0.80;;
49396;SDS011;35615;41.410;2.194;2023-04-03T10:00:41;3.15;;;1.10;;
49396;SDS011;35615;41.410;2.194;2023-04-03T10:03:39;1.20;;;0.70;;
49396;SDS011;35615;41.410;2.194;2023-04-03T10:06:29;1.85;;;1.00;;
49396;SDS011;35615;41.410;2.194;2023-04-03T10:09:06;10.85;;;1.38;;
49396;SDS011;35615;41.410;2.194;2023-04-03T10:12:07;3.63;;;1.00;;
49396;SDS011;35615;41.410;2.194;2023-04-03T10:14:54;2.50;;;0.80;;
49396;SDS011;35615;41.410;2.194;2023-04-03T10:17:36;4.57;;;0.70;;
49396;SDS011;35615;41.410;2.194;2023-04-03T10:20:25;3.88;;;0.90;;
49396;SDS011;35615;41.410;2.194;2023-04-03T10:23:37;2.58;;;0.98;;
49396;SDS011;35615;41.410;2.194;2023-04-03T10:42:00;1.55;;;1.02;;
49396;SDS011;35615;41.410;2.194;2023-04-03T10:53:44;3.78;;;1.10;;
49396;SDS011;35615;41.410;2.194;2023-04-03T10:56:45;4.00;;;1.08;;
49396;SDS011;35615;41.410;2.194;2023-04-03T11:00:36;3.28;;;1.13;;
49396;SDS011;35615;41.410;2.194;2023-04-03T11:03:15;11.25;;;1.10;;
49396;SDS011;35615;41.410;2.194;2023-04-03T11:08:56;10.43;;;1.20;;
49396;SDS011;35615;41.410;2.194;2023-04-03T11:14:29;2.92;;;1.15;;
49396;SDS011;35615;41.410;2.194;2023-04-03T11:23:15;2.25;;;0.98;;
49396;SDS011;35615;41.410;2.194;2023-04-03T11:26:26;6.00;;;1.40;;
49396;SDS011;35615;41.410;2.194;2023-04-03T11:29:03;5.47;;;1.42;;
49396;SDS011;35615;41.410;2.194;2023-04-03T11:35:12;5.75;;;1.50;;
49396;SDS011;35615;41.410;2.194;2023-04-03T11:37:55;4.30;;;1.20;;
49396;SDS011;35615;41.410;2.194;2023-04-03T11:40:34;4.97;;;1.27;;
49396;SDS011;35615;41.410;2.194;2023-04-03T11:43:28;5.90;;;1.20;;
49396;SDS011;35615;41.410;2.194;2023-04-03T12:11:15;2.90;;;1.38;;
49396;SDS011;35615;41.410;2.194;2023-04-03T12:14:02;5.82;;;1.60;;
49396;SDS011;35615;41.410;2.194;2023-04-03T12:16:43;4.75;;;1.27;;
49396;SDS011;35615;41.410;2.194;2023-04-03T12:19:45;3.38;;;1.65;;
49396;SDS011;35615;41.410;2.194;2023-04-03T12:22:15;6.22;;;1.50;;
49396;SDS011;35615;41.410;2.194;2023-04-03T12:24:58;4.43;;;1.50;;
49396;SDS011;35615;41.410;2.194;2023-04-03T12:27:49;5.30;;;1.65;;
49396;SDS011;35615;41.410;2.194;2023-04-03T12:30:37;6.80;;;1.23;;
49396;SDS011;35615;41.410;2.194;2023-04-03T12:34:01;1.73;;;1.10;;
49396;SDS011;35615;41.410;2.194;2023-04-03T12:37:37;3.88;;;1.20;;
49396;SDS011;35615;41.410;2.194;2023-04-03T12:46:38;6.68;;;1.30;;
49396;SDS011;35615;41.410;2.194;2023-04-03T12:52:38;6.28;;;1.42;;
49396;SDS011;35615;41.410;2.194;2023-04-03T12:55:24;4.35;;;1.33;;
49396;SDS011;35615;41.410;2.194;2023-04-03T13:01:02;12.80;;;1.88;;
49396;SDS011;35615;41.410;2.194;2023-04-03T13:03:55;9.57;;;1.65;;
49396;SDS011;35615;41.410;2.194;2023-04-03T13:06:40;7.70;;;1.70;;
49396;SDS011;35615;41.410;2.194;2023-04-03T13:09:20;3.78;;;1.75;;
49396;SDS011;35615;41.410;2.194;2023-04-03T13:11:49;5.80;;;1.80;;
49396;SDS011;35615;41.410;2.194;2023-04-03T13:14:39;8.05;;;1.70;;
49396;SDS011;35615;41.410;2.194;2023-04-03T13:17:13;4.40;;;1.67;;
49396;SDS011;35615;41.410;2.194;2023-04-03T13:19:47;6.25;;;2.13;;
49396;SDS011;35615;41.410;2.194;2023-04-03T13:22:24;5.60;;;1.90;;
49396;SDS011;35615;41.410;2.194;2023-04-03T13:25:07;4.82;;;1.40;;
49396;SDS011;35615;41.410;2.194;2023-04-03T13:27:46;5.40;;;1.92;;
49396;SDS011;35615;41.410;2.194;2023-04-03T13:30:22;5.57;;;1.73;;
49396;SDS011;35615;41.410;2.194;2023-04-03T13:33:18;12.52;;;2.30;;
49396;SDS011;35615;41.410;2.194;2023-04-03T13:41:49;6.18;;;2.08;;
49396;SDS011;35615;41.410;2.194;2023-04-03T13:44:36;4.70;;;1.60;;
49396;SDS011;35615;41.410;2.194;2023-04-03T13:50:15;4.50;;;1.83;;
49396;SDS011;35615;41.410;2.194;2023-04-03T13:55:28;4.47;;;2.00;;
49396;SDS011;35615;41.410;2.194;2023-04-03T14:00:51;4.68;;;2.30;;
49396;SDS011;35615;41.410;2.194;2023-04-03T14:06:06;7.72;;;2.38;;
49396;SDS011;35615;41.410;2.194;2023-04-03T14:08:43;8.15;;;2.60;;
49396;SDS011;35615;41.410;2.194;2023-04-03T14:11:24;10.00;;;2.65;;
49396;SDS011;35615;41.410;2.194;2023-04-03T14:13:59;13.52;;;2.58;;
49396;SDS011;35615;41.410;2.194;2023-04-03T14:16:34;6.90;;;2.38;;
49396;SDS011;35615;41.410;2.194;2023-04-03T14:19:19;9.13;;;1.88;;
49396;SDS011;35615;41.410;2.194;2023-04-03T14:21:57;9.77;;;1.95;;
49396;SDS011;35615;41.410;2.194;2023-04-03T14:24:28;4.82;;;1.90;;
49396;SDS011;35615;41.410;2.194;2023-04-03T14:26:56;9.05;;;1.55;;
49396;SDS011;35615;41.410;2.194;2023-04-03T14:29:26;4.97;;;1.80;;
49396;SDS011;35615;41.410;2.194;2023-04-03T14:31:57;5.15;;;2.20;;
49396;SDS011;35615;41.410;2.194;2023-04-03T14:34:42;6.13;;;2.17;;
49396;SDS011;35615;41.410;2.194;2023-04-03T14:37:15;4.70;;;2.45;;
49396;SDS011;35615;41.410;2.194;2023-04-03T14:39:49;6.70;;;2.13;;
49396;SDS011;35615;41.410;2.194;2023-04-03T14:42:21;8.07;;;2.10;;
49396;SDS011;35615;41.410;2.194;2023-04-03T14:44:57;5.38;;;1.67;;
49396;SDS011;35615;41.410;2.194;2023-04-03T14:47:27;9.15;;;2.22;;
49396;SDS011;35615;41.410;2.194;2023-04-03T14:49:59;4.70;;;1.95;;
49396;SDS011;35615;41.410;2.194;2023-04-03T14:52:29;6.32;;;2.00;;
49396;SDS011;35615;41.410;2.194;2023-04-03T14:55:03;7.07;;;2.33;;
49396;SDS011;35615;41.410;2.194;2023-04-03T14:57:35;3.55;;;2.20;;
49396;SDS011;35615;41.410;2.194;2023-04-03T15:00:16;4.95;;;1.95;;
49396;SDS011;35615;41.410;2.194;2023-04-03T15:05:19;7.57;;;2.53;;
49396;SDS011;35615;41.410;2.194;2023-04-03T15:07:52;6.22;;;2.15;;
49396;SDS011;35615;41.410;2.194;2023-04-03T15:10:27;6.65;;;2.40;;
49396;SDS011;35615;41.410;2.194;2023-04-03T15:12:59;12.75;;;2.65;;
49396;SDS011;35615;41.410;2.194;2023-04-03T15:15:30;13.10;;;2.92;;
49396;SDS011;35615;41.410;2.194;2023-04-03T15:18:01;11.10;;;2.63;;
49396;SDS011;35615;41.410;2.194;2023-04-03T15:20:36;6.35;;;1.90;;
49396;SDS011;35615;41.410;2.194;2023-04-03T15:23:08;8.02;;;2.20;;
49396;SDS011;35615;41.410;2.194;2023-04-03T15:25:40;7.50;;;2.30;;
49396;SDS011;35615;41.410;2.194;2023-04-03T15:28:30;5.80;;;1.90;;
49396;SDS011;35615;41.410;2.194;2023-04-03T15:31:02;11.88;;;2.67;;
49396;SDS011;35615;41.410;2.194;2023-04-03T15:33:36;13.50;;;2.38;;
49396;SDS011;35615;41.410;2.194;2023-04-03T15:36:04;4.95;;;1.48;;
49396;SDS011;35615;41.410;2.194;2023-04-03T15:38:37;4.90;;;1.33;;
49396;SDS011;35615;41.410;2.194;2023-04-03T15:41:07;7.78;;;1.83;;
49396;SDS011;35615;41.410;2.194;2023-04-03T15:43:34;5.63;;;1.60;;
49396;SDS011;35615;41.410;2.194;2023-04-03T15:46:02;15.80;;;2.20;;
49396;SDS011;35615;41.410;2.194;2023-04-03T15:48:30;7.80;;;1.67;;
49396;SDS011;35615;41.410;2.194;2023-04-03T15:51:00;6.72;;;1.50;;
49396;SDS011;35615;41.410;2.194;2023-04-03T15:53:27;7.18;;;2.20;;
49396;SDS011;35615;41.410;2.194;2023-04-03T15:55:55;9.02;;;2.08;;
49396;SDS011;35615;41.410;2.194;2023-04-03T15:58:22;9.90;;;1.60;;
49396;SDS011;35615;41.410;2.194;2023-04-03T16:00:49;7.47;;;2.50;;
49396;SDS011;35615;41.410;2.194;2023-04-03T16:03:18;14.07;;;2.13;;
49396;SDS011;35615;41.410;2.194;2023-04-03T16:08:23;3.90;;;1.00;;
49396;SDS011;35615;41.410;2.194;2023-04-03T16:10:53;8.52;;;1.75;;
49396;SDS011;35615;41.410;2.194;2023-04-03T16:13:21;36.30;;;3.53;;
49396;SDS011;35615;41.410;2.194;2023-04-03T16:15:48;12.23;;;1.50;;
49396;SDS011;35615;41.410;2.194;2023-04-03T16:18:18;21.33;;;3.47;;
49396;SDS011;35615;41.410;2.194;2023-04-03T16:20:46;13.35;;;1.55;;
49396;SDS011;35615;41.410;2.194;2023-04-03T16:23:14;12.23;;;1.95;;
49396;SDS011;35615;41.410;2.194;2023-04-03T16:25:43;4.82;;;1.38;;
49396;SDS011;35615;41.410;2.194;2023-04-03T16:28:14;23.88;;;2.55;;
49396;SDS011;35615;41.410;2.194;2023-04-03T16:30:47;13.88;;;1.90;;
49396;SDS011;35615;41.410;2.194;2023-04-03T16:33:16;16.80;;;2.50;;
49396;SDS011;35615;41.410;2.194;2023-04-03T16:35:43;12.07;;;1.83;;
49396;SDS011;35615;41.410;2.194;2023-04-03T16:38:11;15.88;;;1.50;;
49396;SDS011;35615;41.410;2.194;2023-04-03T16:40:38;13.90;;;1.33;;
49396;SDS011;35615;41.410;2.194;2023-04-03T16:43:08;17.10;;;2.13;;
49396;SDS011;35615;41.410;2.194;2023-04-03T16:45:35;10.32;;;1.45;;
49396;SDS011;35615;41.410;2.194;2023-04-03T16:48:03;8.15;;;1.85;;
49396;SDS011;35615;41.410;2.194;2023-04-03T16:50:31;18.52;;;2.33;;
49396;SDS011;35615;41.410;2.194;2023-04-03T16:53:01;6.03;;;1.13;;
49396;SDS011;35615;41.410;2.194;2023-04-03T16:55:32;8.47;;;1.00;;
49396;SDS011;35615;41.410;2.194;2023-04-03T16:57:59;4.97;;;0.98;;
49396;SDS011;35615;41.410;2.194;2023-04-03T17:00:31;11.57;;;1.35;;
49396;SDS011;35615;41.410;2.194;2023-04-03T17:02:59;15.25;;;1.77;;
49396;SDS011;35615;41.410;2.194;2023-04-03T17:05:32;12.60;;;1.90;;
49396;SDS011;35615;41.410;2.194;2023-04-03T17:07:59;5.38;;;1.00;;
49396;SDS011;35615;41.410;2.194;2023-04-03T17:10:30;9.32;;;2.38;;
49396;SDS011;35615;41.410;2.194;2023-04-03T17:13:05;7.65;;;1.25;;
49396;SDS011;35615;41.410;2.194;2023-04-03T17:15:32;5.28;;;1.33;;
49396;SDS011;35615;41.410;2.194;2023-04-03T17:18:02;10.02;;;1.63;;
49396;SDS011;35615;41.410;2.194;2023-04-03T17:20:30;3.90;;;1.27;;
49396;SDS011;35615;41.410;2.194;2023-04-03T17:23:03;6.60;;;1.27;;
49396;SDS011;35615;41.410;2.194;2023-04-03T17:25:34;8.93;;;1.13;;
49396;SDS011;35615;41.410;2.194;2023-04-03T17:28:05;5.07;;;1.50;;
49396;SDS011;35615;41.410;2.194;2023-04-03T17:30:33;10.90;;;1.38;;
49396;SDS011;35615;41.410;2.194;2023-04-03T17:33:08;11.38;;;1.70;;
49396;SDS011;35615;41.410;2.194;2023-04-03T17:35:36;7.07;;;1.10;;
49396;SDS011;35615;41.410;2.194;2023-04-03T17:38:04;5.78;;;1.17;;
49396;SDS011;35615;41.410;2.194;2023-04-03T17:40:32;3.08;;;0.98;;
49396;SDS011;35615;41.410;2.194;2023-04-03T17:43:02;2.90;;;0.88;;
49396;SDS011;35615;41.410;2.194;2023-04-03T17:45:32;8.77;;;1.15;;